Time;durP1;ratioP1;P1;durP2;ratioP2;P2;SDS_P1;SDS_P2;PMS_P1;PMS_P2;Temp;Humidity;BMP_temperature;BMP_pressure;BME280_temperature;BME280_humidity;BME280_pressure;Samples;Min_cycle;Max_cycle;Signal;HPM_P1;HPM_P2
2022/07/11 00:01:46;;;;;;;1.70;0.83;;;;;;;22.20;56.40;98732.22;6155716;23;20150;-86
2022/07/11 00:04:13;;;;;;;5.10;1.40;;;;;;;22.32;55.73;98725.59;6156413;23;20155;-88
2022/07/11 00:06:40;;;;;;;1.23;0.70;;;;;;;22.23;56.31;98721.22;6154964;23;20209;-86
2022/07/11 00:09:07;;;;;;;1.90;1.00;;;;;;;22.22;56.21;98723.03;6156076;23;20177;-87
2022/07/11 00:11:33;;;;;;;1.47;0.87;;;;;;;22.27;54.70;98720.75;6155697;23;20151;-87
2022/07/11 00:14:00;;;;;;;1.53;1.03;;;;;;;22.30;54.88;98717.72;6154692;23;20155;-87
2022/07/11 00:16:27;;;;;;;1.40;0.90;;;;;;;22.19;55.22;98712.72;6154349;23;20155;-86
2022/07/11 00:18:54;;;;;;;1.50;0.90;;;;;;;22.18;55.32;98721.72;6154658;23;20186;-87
2022/07/11 00:21:20;;;;;;;2.33;0.73;;;;;;;22.09;55.12;98722.69;6154659;23;20155;-87
2022/07/11 00:23:47;;;;;;;1.43;0.80;;;;;;;22.15;55.44;98721.19;6154779;23;20510;-88
2022/07/11 00:26:13;;;;;;;6.07;1.17;;;;;;;22.20;54.59;98718.88;6154440;23;20155;-88
2022/07/11 00:28:40;;;;;;;4.97;1.00;;;;;;;22.33;54.17;98711.22;6156023;23;20257;-87
2022/07/11 00:31:08;;;;;;;1.23;0.80;;;;;;;22.22;53.73;98720.38;6155731;23;20158;-89
2022/07/11 00:33:35;;;;;;;1.87;1.07;;;;;;;22.27;54.08;98717.25;6155703;23;20151;-88
2022/07/11 00:36:02;;;;;;;1.53;0.93;;;;;;;22.16;53.33;98715.72;6155545;23;20151;-88
2022/07/11 00:38:28;;;;;;;1.13;0.70;;;;;;;22.21;53.34;98716.06;6155332;23;20154;-88
2022/07/11 00:40:55;;;;;;;0.70;0.63;;;;;;;22.23;53.30;98724.72;6155110;23;20163;-88
2022/07/11 00:43:33;;;;;;;3.17;0.67;;;;;;;22.12;53.41;98717.03;6153784;23;20150;-89
2022/07/11 00:46:00;;;;;;;1.70;1.30;;;;;;;22.35;52.83;98718.06;6154169;23;20206;-87
2022/07/11 00:48:27;;;;;;;2.40;1.43;;;;;;;22.39;52.68;98718.56;6154798;23;20238;-88
2022/07/11 00:50:54;;;;;;;2.63;1.37;;;;;;;22.31;52.74;98716.72;6154716;23;20205;-88
2022/07/11 00:53:22;;;;;;;2.50;1.17;;;;;;;22.28;51.92;98719.72;6154703;23;20155;-88
2022/07/11 00:55:52;;;;;;;1.30;0.80;;;;;;;22.29;52.54;98718.75;6154124;23;20186;-89
2022/07/11 00:58:19;;;;;;;1.20;0.80;;;;;;;22.27;51.95;98723.41;6155583;23;20198;-90
2022/07/11 01:00:46;;;;;;;2.37;1.17;;;;;;;22.36;51.72;98722.41;6154092;23;20155;-89
2022/07/11 01:03:12;;;;;;;3.63;0.90;;;;;;;22.32;51.91;98717.56;6153733;23;20166;-89
2022/07/11 01:05:39;;;;;;;1.87;0.97;;;;;;;22.53;50.89;98725.94;6155456;23;20155;-89
2022/07/11 01:08:05;;;;;;;1.43;0.87;;;;;;;22.58;50.61;98729.78;6155138;23;20258;-88
2022/07/11 01:10:32;;;;;;;1.77;1.10;;;;;;;22.55;50.97;98735.47;6156444;23;20151;-90
2022/07/11 01:12:59;;;;;;;2.37;0.90;;;;;;;22.46;50.91;98738.28;6156296;23;20155;-88
2022/07/11 01:15:26;;;;;;;0.70;0.57;;;;;;;22.37;50.59;98742.78;6155157;23;20567;-90
2022/07/11 01:17:53;;;;;;;1.47;0.67;;;;;;;22.44;50.83;98749.13;6156814;23;20650;-89
2022/07/11 01:20:24;;;;;;;1.07;0.77;;;;;;;22.21;51.37;98740.09;6157392;23;20148;-90
2022/07/11 01:22:57;;;;;;;1.53;0.90;;;;;;;22.17;50.97;98743.25;6157940;23;20147;-88
2022/07/11 01:25:30;;;;;;;0.73;0.57;;;;;;;22.18;51.22;98735.06;6157618;23;20233;-88
2022/07/11 01:27:58;;;;;;;1.93;0.97;;;;;;;21.98;51.20;98741.69;6157613;23;20163;-88
2022/07/11 01:30:27;;;;;;;1.00;0.70;;;;;;;22.02;51.35;98751.88;6157170;23;20158;-89
2022/07/11 01:32:55;;;;;;;1.37;0.70;;;;;;;22.19;50.90;98749.25;6157620;23;20306;-88
2022/07/11 01:35:23;;;;;;;1.20;1.00;;;;;;;22.24;50.63;98736.25;6157386;23;20146;-91
2022/07/11 01:37:49;;;;;;;2.00;1.07;;;;;;;22.22;50.84;98736.41;6157222;23;20147;-88
2022/07/11 01:40:17;;;;;;;0.80;0.60;;;;;;;22.16;50.93;98742.41;6157127;23;20206;-88
2022/07/11 01:42:43;;;;;;;1.23;0.53;;;;;;;22.18;51.15;98748.41;6157464;23;20155;-88
2022/07/11 01:45:11;;;;;;;1.20;0.70;;;;;;;22.20;50.71;98741.06;6157039;23;20147;-88
2022/07/11 01:47:39;;;;;;;1.70;0.90;;;;;;;22.20;50.75;98735.72;6156992;23;20484;-88
2022/07/11 01:50:09;;;;;;;2.00;0.90;;;;;;;22.07;51.05;98748.72;6157010;23;20174;-89
2022/07/11 01:52:36;;;;;;;1.27;0.77;;;;;;;21.99;50.65;98748.69;6154701;23;20155;-89
2022/07/11 01:55:03;;;;;;;1.73;0.87;;;;;;;22.03;51.05;98742.03;6156790;23;20162;-88
2022/07/11 01:57:30;;;;;;;1.00;0.70;;;;;;;22.03;51.22;98740.22;6155838;23;20155;-89
2022/07/11 01:59:57;;;;;;;1.20;0.63;;;;;;;22.10;50.95;98745.72;6156798;23;20175;-89
2022/07/11 02:02:23;;;;;;;1.40;0.90;;;;;;;22.10;50.63;98745.72;6155561;23;20170;-89
2022/07/11 02:04:50;;;;;;;1.63;1.03;;;;;;;22.16;50.96;98742.41;6155791;23;20155;-88
2022/07/11 02:08:11;;;;;;;1.47;0.77;;;;;;;22.17;50.81;98748.59;6157046;23;20151;-88
2022/07/11 02:10:03;;;;;;;1.97;1.00;;;;;;;22.01;50.75;98746.72;6156579;23;20163;-88
2022/07/11 02:12:30;;;;;;;2.30;0.90;;;;;;;22.06;50.40;98743.53;6155833;23;20579;-88
2022/07/11 02:14:57;;;;;;;1.33;0.80;;;;;;;22.02;50.67;98748.38;6156736;23;20182;-88
2022/07/11 02:17:23;;;;;;;1.20;0.90;;;;;;;22.03;50.95;98750.03;6156871;23;20155;-87
2022/07/11 02:19:50;;;;;;;1.60;0.90;;;;;;;22.01;50.92;98736.84;6156717;23;20175;-89
2022/07/11 02:22:17;;;;;;;1.50;0.70;;;;;;;21.96;51.11;98743.66;6156325;23;20475;-88
2022/07/11 02:24:43;;;;;;;1.40;0.70;;;;;;;21.88;50.96;98757.81;6156609;23;20150;-88
2022/07/11 02:27:10;;;;;;;2.00;1.10;;;;;;;21.60;50.89;98740.31;6156752;23;20158;-88
2022/07/11 02:29:37;;;;;;;1.07;0.77;;;;;;;21.71;51.97;98748.06;6156978;23;20237;-89
2022/07/11 02:32:04;;;;;;;1.43;0.77;;;;;;;21.66;51.76;98746.88;6156005;23;20158;-88
2022/07/11 02:34:30;;;;;;;5.57;1.87;;;;;;;21.49;52.14;98758.47;6156662;23;20173;-89
2022/07/11 02:36:57;;;;;;;1.93;0.90;;;;;;;21.42;52.48;98750.22;6156601;23;20157;-89
2022/07/11 02:39:22;;;;;;;3.40;0.90;;;;;;;21.54;52.43;98756.16;6156708;23;20314;-89
2022/07/11 02:41:49;;;;;;;2.13;1.13;;;;;;;21.67;51.95;98754.69;6156884;23;20171;-88
2022/07/11 02:44:15;;;;;;;1.23;0.80;;;;;;;21.67;51.98;98764.56;6156400;23;20162;-88
2022/07/11 02:46:42;;;;;;;1.67;1.00;;;;;;;21.54;51.95;98770.28;6156564;23;20151;-89
2022/07/11 02:49:08;;;;;;;1.40;0.90;;;;;;;21.39;52.04;98772.72;6155398;23;20686;-89
2022/07/11 02:51:35;;;;;;;1.50;0.80;;;;;;;21.44;51.76;98773.09;6155515;23;20155;-89
2022/07/11 02:54:02;;;;;;;2.17;0.87;;;;;;;21.49;51.42;98769.94;6155629;23;20159;-89
2022/07/11 02:56:29;;;;;;;2.60;1.20;;;;;;;21.47;52.20;98763.94;6156269;23;20579;-89
2022/07/11 02:58:55;;;;;;;2.47;0.90;;;;;;;21.46;52.05;98767.63;6156599;23;20151;-91
2022/07/11 03:01:22;;;;;;;1.57;0.70;;;;;;;21.34;52.50;98774.19;6156509;23;20260;-89
2022/07/11 03:03:48;;;;;;;1.43;0.80;;;;;;;21.13;53.09;98785.22;6156305;23;20233;-90
2022/07/11 03:06:15;;;;;;;1.60;0.83;;;;;;;21.15;52.74;98780.56;6156360;23;20158;-89
2022/07/11 03:08:41;;;;;;;1.17;0.67;;;;;;;21.42;52.42;98776.91;6156523;23;20257;-88
2022/07/11 03:11:08;;;;;;;2.07;0.80;;;;;;;21.51;52.20;98781.31;6155260;23;20523;-89
2022/07/11 03:13:35;;;;;;;2.37;1.00;;;;;;;21.60;51.70;98785.66;6156794;23;20186;-89
2022/07/11 03:16:02;;;;;;;1.17;0.87;;;;;;;21.58;51.95;98784.16;6156249;23;20589;-88
2022/07/11 03:18:28;;;;;;;1.13;0.60;;;;;;;21.43;52.17;98787.41;6155193;23;20571;-89
2022/07/11 03:20:55;;;;;;;1.20;0.80;;;;;;;21.39;52.51;98780.72;6156468;23;20147;-89
2022/07/11 03:23:22;;;;;;;1.77;0.93;;;;;;;21.35;52.87;98789.19;6156257;23;20155;-89
2022/07/11 03:25:49;;;;;;;1.77;0.80;;;;;;;21.42;52.94;98793.75;6156153;23;20154;-88
2022/07/11 03:28:15;;;;;;;1.60;0.90;;;;;;;21.27;53.51;98794.47;6156244;23;20206;-90
2022/07/11 03:30:42;;;;;;;2.33;1.03;;;;;;;21.13;53.57;98798.53;6154759;23;20245;-88
2022/07/11 03:33:08;;;;;;;1.63;1.00;;;;;;;21.11;53.97;98805.84;6154923;23;20163;-88
2022/07/11 03:35:40;;;;;;;1.53;1.00;;;;;;;21.08;54.25;98806.16;6155096;23;20178;-89
2022/07/11 03:38:08;;;;;;;2.23;1.00;;;;;;;21.07;54.10;98809.00;6156436;23;20143;-90
2022/07/11 03:40:35;;;;;;;1.17;0.60;;;;;;;21.25;53.66;98804.47;6154456;23;20205;-89
2022/07/11 03:43:01;;;;;;;1.60;0.80;;;;;;;21.24;53.80;98802.78;6156145;23;20147;-88
2022/07/11 03:45:28;;;;;;;1.60;0.70;;;;;;;21.23;54.25;98806.44;6155953;23;20163;-90
2022/07/11 03:47:55;;;;;;;1.30;0.73;;;;;;;21.26;54.52;98817.63;6156276;23;20147;-90
2022/07/11 03:50:22;;;;;;;1.43;0.63;;;;;;;21.38;53.55;98804.88;6154611;23;20159;-89
2022/07/11 03:52:49;;;;;;;2.17;0.80;;;;;;;21.46;53.54;98806.78;6155433;23;20237;-88
2022/07/11 03:55:16;;;;;;;1.40;0.80;;;;;;;21.43;53.71;98805.25;6155924;23;20150;-88
2022/07/11 03:57:43;;;;;;;2.30;1.00;;;;;;;21.41;53.84;98797.41;6155879;23;20147;-89
2022/07/11 04:00:10;;;;;;;1.60;0.80;;;;;;;21.44;54.00;98805.09;6155433;23;20571;-89
2022/07/11 04:02:37;;;;;;;1.33;0.83;;;;;;;21.46;53.77;98812.09;6155534;23;20217;-89
2022/07/11 04:05:05;;;;;;;1.60;1.00;;;;;;;21.24;54.34;98819.63;6155821;23;20230;-90
2022/07/11 04:07:32;;;;;;;2.53;1.23;;;;;;;21.19;54.45;98813.06;6156141;23;20213;-90
2022/07/11 04:09:58;;;;;;;1.93;1.00;;;;;;;21.14;54.52;98826.88;6155788;23;20179;-88
2022/07/11 04:12:25;;;;;;;1.33;0.70;;;;;;;21.28;54.67;98826.28;6155650;23;20650;-89
2022/07/11 04:14:51;;;;;;;2.07;1.07;;;;;;;21.35;54.41;98824.72;6156074;23;20293;-89
2022/07/11 04:17:18;;;;;;;2.00;0.80;;;;;;;21.35;54.38;98830.03;6155933;23;20153;-89
2022/07/11 04:19:45;;;;;;;0.93;0.77;;;;;;;21.47;53.68;98825.25;6155446;23;20237;-88
2022/07/11 04:22:12;;;;;;;1.40;0.83;;;;;;;21.38;53.97;98835.03;6155970;23;20154;-88
2022/07/11 04:24:39;;;;;;;0.97;0.67;;;;;;;21.32;53.99;98830.34;6155659;23;20174;-88
2022/07/11 04:27:06;;;;;;;2.80;0.73;;;;;;;21.30;54.00;98826.97;6155844;23;20166;-89
2022/07/11 04:29:32;;;;;;;4.00;1.10;;;;;;;21.35;54.51;98824.72;6155655;23;20210;-89
2022/07/11 04:31:59;;;;;;;1.43;0.70;;;;;;;21.56;53.89;98826.16;6155551;23;20147;-90
2022/07/11 04:34:26;;;;;;;1.60;1.00;;;;;;;21.63;53.83;98825.38;6155718;23;20151;-90
2022/07/11 04:36:53;;;;;;;2.03;1.10;;;;;;;21.54;53.56;98833.50;6155722;23;20146;-89
2022/07/11 04:39:18;;;;;;;1.93;0.80;;;;;;;21.71;53.33;98840.59;6154434;23;20190;-90
2022/07/11 04:41:44;;;;;;;2.40;0.80;;;;;;;21.56;52.98;98845.69;6155597;23;20253;-89
2022/07/11 04:44:10;;;;;;;1.93;1.00;;;;;;;21.59;53.53;98844.53;6154882;23;20165;-88
2022/07/11 04:46:38;;;;;;;3.00;0.73;;;;;;;21.72;53.27;98831.59;6157642;23;20225;-91
2022/07/11 04:49:05;;;;;;;1.43;0.80;;;;;;;21.90;52.42;98840.41;6156083;23;20183;-87
2022/07/11 04:51:31;;;;;;;1.40;0.77;;;;;;;21.86;52.18;98847.03;6157469;23;20174;-90
2022/07/11 04:53:58;;;;;;;1.73;0.90;;;;;;;22.00;53.04;98851.78;6157957;23;20570;-91
2022/07/11 04:56:25;;;;;;;1.47;0.90;;;;;;;22.05;52.39;98854.81;6156524;23;20186;-90
2022/07/11 04:58:52;;;;;;;1.40;0.80;;;;;;;22.03;52.53;98852.31;6156443;23;20175;-88
2022/07/11 05:01:19;;;;;;;2.60;0.80;;;;;;;22.10;51.93;98854.31;6156281;23;20155;-89
2022/07/11 05:03:45;;;;;;;1.70;0.80;;;;;;;22.16;51.79;98856.38;6156358;23;20551;-90
2022/07/11 05:06:12;;;;;;;0.90;0.60;;;;;;;22.17;51.20;98858.88;6155978;23;20173;-90
2022/07/11 05:08:39;;;;;;;1.37;0.67;;;;;;;22.36;51.40;98853.28;6156097;23;20213;-91
2022/07/11 05:11:06;;;;;;;1.40;0.70;;;;;;;22.35;50.89;98856.94;6157602;23;20158;-90
2022/07/11 05:13:32;;;;;;;1.30;0.87;;;;;;;22.51;50.64;98856.19;6157377;23;20151;-89
2022/07/11 05:15:59;;;;;;;2.23;0.80;;;;;;;22.43;51.29;98858.81;6157447;23;20555;-89
2022/07/11 05:18:25;;;;;;;1.00;0.50;;;;;;;22.71;50.36;98857.59;6156863;23;20690;-91
2022/07/11 05:20:52;;;;;;;1.27;0.60;;;;;;;22.89;50.48;98849.41;6156371;23;20166;-89
2022/07/11 05:23:19;;;;;;;3.60;0.77;;;;;;;23.08;49.28;98857.13;6157462;23;20158;-89
2022/07/11 05:25:46;;;;;;;1.47;0.70;;;;;;;23.08;48.83;98849.13;6157908;23;20152;-91
2022/07/11 05:28:13;;;;;;;0.80;0.40;;;;;;;23.35;48.21;98846.09;6158042;23;20175;-90
2022/07/11 05:30:40;;;;;;;1.47;0.80;;;;;;;23.55;47.33;98858.16;6156125;23;20155;-88
2022/07/11 05:33:07;;;;;;;0.97;0.60;;;;;;;23.57;46.76;98856.16;6157067;23;20245;-91
2022/07/11 05:35:33;;;;;;;2.80;0.83;;;;;;;23.57;46.96;98866.00;6158032;23;20158;-87
2022/07/11 05:38:03;;;;;;;1.13;0.60;;;;;;;23.56;46.54;98854.47;6158027;23;20169;-90
2022/07/11 05:40:29;;;;;;;1.37;0.70;;;;;;;23.53;47.21;98849.44;6156962;23;20220;-91
2022/07/11 05:42:55;;;;;;;2.37;0.80;;;;;;;23.74;47.01;98849.75;6156217;23;20163;-88
2022/07/11 05:45:22;;;;;;;1.50;0.80;;;;;;;23.79;46.95;98838.53;6157812;23;20175;-91
2022/07/11 05:47:48;;;;;;;2.97;0.93;;;;;;;23.47;47.25;98854.66;6155814;23;20166;-90
2022/07/11 05:50:15;;;;;;;1.23;0.67;;;;;;;23.63;46.69;98850.13;6157102;23;20170;-91
2022/07/11 05:52:45;;;;;;;1.73;0.60;;;;;;;23.70;47.03;98860.97;6157494;23;20159;-91
2022/07/11 05:55:11;;;;;;;1.00;0.50;;;;;;;23.77;45.73;98862.78;6157102;23;20147;-90
2022/07/11 05:57:38;;;;;;;0.67;0.33;;;;;;;23.74;46.61;98873.81;6156088;23;20155;-88
2022/07/11 06:00:05;;;;;;;1.50;0.57;;;;;;;24.01;45.21;98863.72;6157697;23;20147;-89
2022/07/11 06:02:32;;;;;;;2.80;0.70;;;;;;;23.79;44.97;98874.16;6156117;23;20237;-87
2022/07/11 06:04:59;;;;;;;0.60;0.40;;;;;;;24.12;45.58;98866.06;6157472;23;20226;-87
2022/07/11 06:10:09;;;;;;;0.77;0.40;;;;;;;24.64;42.53;98871.69;6157206;23;20581;-88
2022/07/11 06:12:36;;;;;;;1.30;0.67;;;;;;;24.88;41.83;98880.47;6157108;23;20151;-87
2022/07/11 06:15:03;;;;;;;0.93;0.50;;;;;;;24.90;41.13;98873.06;6156883;23;20151;-90
2022/07/11 06:17:30;;;;;;;3.97;0.57;;;;;;;25.11;42.23;98874.28;6156162;23;20221;-88
2022/07/11 06:19:56;;;;;;;1.37;0.70;;;;;;;25.48;42.04;98872.50;6156582;23;20567;-88
2022/07/11 06:22:21;;;;;;;1.73;0.70;;;;;;;25.34;39.56;98880.47;6156804;23;20147;-90
2022/07/11 06:24:48;;;;;;;1.13;0.50;;;;;;;24.85;40.89;98886.19;6156389;23;20161;-92
2022/07/11 06:27:13;;;;;;;1.23;0.53;;;;;;;25.05;39.89;98876.66;6155674;23;20230;-90
2022/07/11 06:29:47;;;;;;;0.80;0.40;;;;;;;25.09;39.45;98882.50;6155220;23;20254;-93
2022/07/11 06:32:13;;;;;;;0.67;0.43;;;;;;;25.11;39.77;98887.69;6154671;23;20524;-92
2022/07/11 06:34:38;;;;;;;0.87;0.50;;;;;;;25.44;40.12;98876.53;6156357;23;20147;-89
2022/07/11 06:37:04;;;;;;;1.30;0.50;;;;;;;25.62;39.29;98893.19;6155197;23;20161;-91
2022/07/11 06:39:29;;;;;;;1.17;0.40;;;;;;;25.83;38.31;98887.09;6156481;23;20143;-92
2022/07/11 06:41:55;;;;;;;0.60;0.30;;;;;;;26.15;37.44;98886.75;6156557;23;20170;-91
2022/07/11 06:44:23;;;;;;;0.40;0.30;;;;;;;26.43;37.38;98884.25;6156364;23;20222;-90
2022/07/11 06:46:49;;;;;;;0.40;0.20;;;;;;;26.50;37.31;98885.19;6155603;23;20557;-91
2022/07/11 06:49:14;;;;;;;0.60;0.30;;;;;;;26.74;36.17;98884.84;6154923;23;20263;-92
2022/07/11 06:51:40;;;;;;;4.20;0.90;;;;;;;26.86;36.69;98885.22;6155664;23;20594;-91
2022/07/11 06:54:05;;;;;;;4.32;0.60;;;;;;;26.56;35.65;98902.41;6156039;23;20166;-90
2022/07/11 06:56:31;;;;;;;1.02;0.57;;;;;;;26.22;37.48;98903.84;6156680;23;20147;-90
2022/07/11 06:58:56;;;;;;;2.45;0.90;;;;;;;26.77;38.21;98900.66;6155387;23;20151;-90
2022/07/11 07:01:22;;;;;;;1.17;0.43;;;;;;;27.37;38.14;98894.88;6157192;23;20143;-89
2022/07/11 07:03:47;;;;;;;2.22;0.60;;;;;;;27.47;36.48;98912.56;6156540;23;20147;-89
2022/07/11 07:06:13;;;;;;;0.65;0.50;;;;;;;27.39;36.25;98906.28;6155749;23;20162;-90
2022/07/11 07:08:38;;;;;;;1.38;0.47;;;;;;;27.15;35.34;98911.22;6156125;23;20171;-90
2022/07/11 07:11:04;;;;;;;1.13;0.35;;;;;;;27.23;36.15;98914.59;6155387;23;20160;-88
2022/07/11 07:13:29;;;;;;;2.10;0.52;;;;;;;27.23;34.73;98909.22;6155296;23;20230;-89
2022/07/11 07:15:59;;;;;;;1.17;0.40;;;;;;;27.27;36.02;98909.66;6156788;23;20162;-90
2022/07/11 07:18:25;;;;;;;1.33;0.50;;;;;;;27.13;35.62;98910.53;6156707;23;20143;-88
2022/07/11 07:20:52;;;;;;;7.47;0.65;;;;;;;27.49;36.80;98895.19;6155264;23;20165;-90
2022/07/11 07:23:18;;;;;;;0.28;0.20;;;;;;;27.56;36.21;98906.03;6155217;23;20186;-89
2022/07/11 07:25:44;;;;;;;0.75;0.38;;;;;;;27.64;34.60;98905.91;6155178;23;20155;-88
2022/07/11 07:28:10;;;;;;;0.65;0.35;;;;;;;27.58;34.73;98904.81;6156316;23;20182;-89
2022/07/11 07:30:36;;;;;;;0.52;0.30;;;;;;;27.41;34.32;98909.63;6156346;23;20147;-89
2022/07/11 07:33:01;;;;;;;0.55;0.30;;;;;;;27.28;34.67;98908.66;6156349;23;20158;-89
2022/07/11 07:35:28;;;;;;;0.80;0.40;;;;;;;27.66;35.37;98898.44;6156240;23;20173;-89
2022/07/11 07:37:54;;;;;;;1.17;0.38;;;;;;;27.92;34.09;98901.34;6156568;23;20162;-91
2022/07/11 07:40:22;;;;;;;1.58;0.40;;;;;;;27.90;33.80;98906.09;6156084;23;20205;-90
2022/07/11 07:42:48;;;;;;;2.72;0.30;;;;;;;28.06;34.51;98899.59;6156299;23;20218;-89
2022/07/11 07:45:14;;;;;;;0.65;0.40;;;;;;;28.23;32.06;98907.16;6156560;23;20250;-91
2022/07/11 07:47:41;;;;;;;0.32;0.22;;;;;;;28.30;32.19;98905.34;6156501;23;20154;-91
2022/07/11 07:50:06;;;;;;;1.10;0.30;;;;;;;28.32;33.17;98908.69;6154950;23;20190;-90
2022/07/11 07:52:32;;;;;;;0.55;0.50;;;;;;;28.51;32.74;98909.81;6156474;23;20148;-90
2022/07/11 07:54:58;;;;;;;1.95;0.47;;;;;;;28.72;32.68;98911.59;6156118;23;20151;-88
2022/07/11 07:57:23;;;;;;;0.85;0.20;;;;;;;28.87;32.50;98910.41;6156365;23;20147;-89
2022/07/11 07:59:49;;;;;;;1.33;0.40;;;;;;;28.78;32.48;98913.47;6156374;23;20440;-88
2022/07/11 08:02:15;;;;;;;0.98;0.40;;;;;;;29.23;33.56;98910.97;6155830;23;20167;-89
2022/07/11 08:04:42;;;;;;;0.80;0.45;;;;;;;28.97;31.91;98900.06;6156170;23;20591;-89
2022/07/11 08:07:08;;;;;;;0.47;0.10;;;;;;;29.18;31.87;98899.06;6156640;23;20486;-91
2022/07/11 08:09:35;;;;;;;0.82;0.28;;;;;;;29.20;31.50;98908.66;6156605;23;20313;-88
2022/07/11 08:12:02;;;;;;;0.70;0.30;;;;;;;28.90;31.06;98906.47;6156645;23;20285;-89
2022/07/11 08:14:31;;;;;;;0.93;0.38;;;;;;;29.24;31.61;98917.19;6155959;23;20259;-90
2022/07/11 08:16:57;;;;;;;0.82;0.32;;;;;;;29.41;30.96;98904.09;6156274;23;20161;-91
2022/07/11 08:19:24;;;;;;;0.38;0.28;;;;;;;29.64;31.17;98902.66;6156130;23;20218;-92
2022/07/11 08:21:51;;;;;;;1.33;0.47;;;;;;;29.79;30.65;98902.50;6154783;23;20170;-89
2022/07/11 08:24:17;;;;;;;1.42;0.40;;;;;;;29.56;29.98;98900.19;6155809;23;20182;-88
2022/07/11 08:26:47;;;;;;;0.50;0.20;;;;;;;29.71;31.44;98903.53;6155933;23;20151;-90
2022/07/11 08:29:14;;;;;;;1.80;0.30;;;;;;;29.50;31.59;98906.44;6155913;23;20178;-90
2022/07/11 08:31:41;;;;;;;0.82;0.30;;;;;;;29.29;30.71;98908.47;6156641;23;20230;-91
2022/07/11 08:34:07;;;;;;;1.15;0.22;;;;;;;29.50;31.16;98901.03;6156077;23;20151;-91
2022/07/11 08:36:34;;;;;;;0.75;0.20;;;;;;;29.74;30.27;98896.88;6156561;23;20151;-92
2022/07/11 08:39:02;;;;;;;0.82;0.40;;;;;;;30.23;31.08;98896.41;6155677;23;20147;-92
2022/07/11 08:41:37;;;;;;;1.13;0.43;;;;;;;30.15;29.25;98900.16;6154894;23;20634;-92
2022/07/11 08:44:06;;;;;;;2.58;0.70;;;;;;;30.38;30.71;98899.72;6156205;23;20139;-90
2022/07/11 08:46:33;;;;;;;0.98;0.43;;;;;;;30.37;29.50;98904.28;6154657;23;20182;-89
2022/07/11 08:49:03;;;;;;;3.15;0.40;;;;;;;30.33;30.53;98911.16;6154466;23;20630;-90
2022/07/11 08:51:36;;;;;;;1.05;0.32;;;;;;;30.45;27.87;98900.56;6130122;23;20163;-88
2022/07/11 08:54:03;;;;;;;0.50;0.20;;;;;;;30.23;28.10;98907.22;6154702;23;20151;-89
2022/07/11 08:56:30;;;;;;;0.43;0.20;;;;;;;30.59;29.83;98902.16;6154610;23;20151;-90
2022/07/11 08:59:03;;;;;;;0.75;0.50;;;;;;;30.57;28.80;98887.16;6154614;23;20487;-91
2022/07/11 09:01:33;;;;;;;1.63;0.68;;;;;;;30.57;29.38;98893.41;6154620;23;20154;-89
2022/07/11 09:04:00;;;;;;;0.50;0.20;;;;;;;30.58;29.71;98895.09;6156015;23;20638;-90
2022/07/11 09:06:28;;;;;;;0.80;0.30;;;;;;;30.43;28.87;98892.63;6156776;23;20151;-89
2022/07/11 09:09:01;;;;;;;1.60;0.30;;;;;;;30.19;29.44;98892.47;6155533;23;20179;-90
2022/07/11 09:11:29;;;;;;;4.18;0.57;;;;;;;30.20;28.69;98880.59;6156034;23;20147;-89
2022/07/11 09:13:55;;;;;;;0.55;0.20;;;;;;;30.53;28.62;98888.66;6155699;23;20154;-89
2022/07/11 09:16:26;;;;;;;1.02;0.70;;;;;;;30.48;28.50;98883.88;6154514;23;20166;-89
2022/07/11 09:18:53;;;;;;;1.73;0.47;;;;;;;30.38;28.30;98878.06;6156698;23;20251;-88
2022/07/11 09:26:52;;;;;;;0.40;0.30;;;;;;;30.40;28.39;98879.53;6155670;23;20626;-87
2022/07/11 09:29:21;;;;;;;1.02;0.30;;;;;;;30.67;29.15;98874.84;6155820;23;20190;-88
2022/07/11 09:31:48;;;;;;;1.85;0.30;;;;;;;30.80;27.88;98876.66;6156906;23;20599;-90
2022/07/11 09:34:16;;;;;;;0.65;0.20;;;;;;;30.86;27.68;98875.78;6156571;23;20590;-88
2022/07/11 09:36:50;;;;;;;3.80;0.40;;;;;;;30.95;27.87;98875.34;6156275;23;20163;-87
2022/07/11 09:39:17;;;;;;;0.90;0.30;;;;;;;31.33;28.80;98877.19;6157642;23;20154;-87
2022/07/11 09:41:46;;;;;;;0.88;0.30;;;;;;;31.51;29.00;98875.41;6157317;23;20167;-88
2022/07/11 09:44:22;;;;;;;0.20;0.20;;;;;;;31.67;27.84;98874.03;6157993;23;20154;-88
2022/07/11 09:46:51;;;;;;;4.03;0.30;;;;;;;31.40;26.82;98877.97;6156122;23;20155;-88
2022/07/11 09:49:32;;;;;;;0.68;0.22;;;;;;;31.18;26.88;98879.41;6157259;23;20179;-90
2022/07/11 09:52:19;;;;;;;0.63;0.17;;;;;;;31.26;29.67;98876.41;6156633;23;20139;-90
2022/07/11 09:55:01;;;;;;;0.45;0.20;;;;;;;31.16;26.67;98884.19;6157530;23;20197;-89
2022/07/11 09:57:35;;;;;;;1.85;0.30;;;;;;;30.84;26.34;98878.72;6132933;23;20177;-89
2022/07/11 10:00:04;;;;;;;0.45;0.20;;;;;;;31.02;28.13;98870.75;6156098;23;20214;-89
2022/07/11 10:02:30;;;;;;;0.68;0.30;;;;;;;31.24;26.20;98883.91;6156039;23;20175;-87
2022/07/11 10:04:58;;;;;;;2.25;0.20;;;;;;;31.20;25.52;98871.88;6157110;23;20585;-89
2022/07/11 10:07:24;;;;;;;0.68;0.30;;;;;;;31.34;26.55;98873.44;6157122;23;20155;-88
2022/07/11 10:09:50;;;;;;;0.38;0.10;;;;;;;31.41;25.22;98876.94;6157411;23;20272;-89
2022/07/11 10:12:15;;;;;;;0.70;0.30;;;;;;;31.52;25.19;98877.09;6157521;23;20246;-87
2022/07/11 10:14:42;;;;;;;2.33;0.28;;;;;;;31.51;25.56;98874.59;6157095;23;20616;-90
2022/07/11 10:17:36;;;;;;;1.40;0.25;;;;;;;31.59;25.10;98886.00;6155900;23;20147;-89
2022/07/11 10:20:11;;;;;;;0.93;0.20;;;;;;;31.72;24.16;98876.91;6155627;23;20132;-88
2022/07/11 10:22:56;;;;;;;0.98;0.40;;;;;;;32.12;24.59;98856.53;6155466;23;20142;-88
2022/07/11 10:25:33;;;;;;;1.48;0.28;;;;;;;32.03;24.81;98876.84;6154317;23;20519;-87
2022/07/11 10:28:32;;;;;;;0.70;0.30;;;;;;;31.80;26.14;98879.34;6154209;23;20234;-88
2022/07/11 10:30:59;;;;;;;0.43;0.20;;;;;;;32.00;25.29;98873.75;6156484;23;20166;-88
2022/07/11 10:33:28;;;;;;;0.77;0.28;;;;;;;32.27;25.01;98874.28;6156910;23;20158;-89
2022/07/11 10:35:56;;;;;;;0.40;0.20;;;;;;;31.93;25.14;98868.38;6155642;23;20508;-88
2022/07/11 10:38:23;;;;;;;0.63;0.22;;;;;;;31.57;26.55;98885.38;6155456;23;20486;-87
2022/07/11 10:40:57;;;;;;;1.08;0.30;;;;;;;31.70;24.38;98878.19;6155403;23;20257;-88
2022/07/11 10:43:22;;;;;;;3.83;0.20;;;;;;;31.54;25.40;98890.41;6155733;23;20223;-87
2022/07/11 10:46:03;;;;;;;1.35;0.32;;;;;;;31.84;25.41;98875.13;6157018;23;20166;-87
2022/07/11 10:48:34;;;;;;;0.70;0.30;;;;;;;32.13;25.06;98866.31;6156803;23;20237;-86
2022/07/11 10:51:25;;;;;;;0.93;0.30;;;;;;;32.02;24.22;98880.59;6157064;23;20539;-88
2022/07/11 10:53:52;;;;;;;0.10;0.10;;;;;;;32.12;23.78;98872.81;6157372;23;20135;-88
2022/07/11 10:56:42;;;;;;;0.40;0.10;;;;;;;32.12;24.39;98883.66;6156963;23;20147;-88
2022/07/11 10:59:16;;;;;;;1.95;0.25;;;;;;;31.89;23.78;98877.97;6157076;23;20194;-89
2022/07/11 11:02:00;;;;;;;0.82;0.32;;;;;;;31.90;24.64;98886.94;6155438;23;20574;-88
2022/07/11 11:04:42;;;;;;;0.30;0.20;;;;;;;32.15;24.01;98866.91;6156515;23;20147;-88
2022/07/11 11:07:32;;;;;;;0.38;0.20;;;;;;;32.77;24.11;98867.66;6155356;23;20179;-90
2022/07/11 11:09:59;;;;;;;0.45;0.35;;;;;;;32.57;25.06;98872.53;6156753;23;20194;-87
2022/07/11 11:13:04;;;;;;;1.75;0.45;;;;;;;32.24;23.55;98878.28;6156784;23;20209;-89
2022/07/11 11:15:54;;;;;;;0.35;0.10;;;;;;;32.41;23.08;98873.09;6156502;23;20143;-87
2022/07/11 11:18:25;;;;;;;3.50;0.20;;;;;;;32.32;24.17;98874.44;6155316;23;20144;-89
2022/07/11 11:21:02;;;;;;;0.40;0.20;;;;;;;32.42;25.23;98886.44;6157042;23;20159;-89
2022/07/11 11:23:33;;;;;;;0.30;0.20;;;;;;;32.50;24.24;98869.00;6157041;23;20155;-88
2022/07/11 11:26:19;;;;;;;0.93;0.47;;;;;;;32.76;25.26;98869.53;6155185;23;20228;-86
2022/07/11 11:28:59;;;;;;;0.43;0.20;;;;;;;32.55;23.14;98871.91;6156579;23;20185;-87
2022/07/11 11:31:30;;;;;;;0.65;0.40;;;;;;;32.33;24.01;98873.41;6155177;23;20245;-89
2022/07/11 11:33:56;;;;;;;0.75;0.30;;;;;;;32.32;23.92;98860.88;6155155;23;20646;-88
2022/07/11 11:36:24;;;;;;;3.72;0.30;;;;;;;32.55;24.57;98867.31;6156292;23;20177;-87
2022/07/11 11:38:50;;;;;;;0.93;0.32;;;;;;;32.59;24.18;98862.25;6155134;23;20540;-86
2022/07/11 11:41:27;;;;;;;0.52;0.30;;;;;;;32.48;23.35;98868.41;6156084;23;20173;-86
2022/07/11 11:43:54;;;;;;;1.05;0.30;;;;;;;32.28;21.71;98865.94;6156996;23;20162;-88
2022/07/11 11:46:24;;;;;;;0.98;0.30;;;;;;;32.12;21.97;98871.97;6155047;23;20570;-88
2022/07/11 11:48:49;;;;;;;0.50;0.20;;;;;;;32.26;21.87;98854.47;6156120;23;20185;-88